Get Adobe Flash player

РУС

ENG

 
  Pireps - S7
 

Рейс SBIS7 2278

  • Выполнял: Grigoriy Paliy
  • Аэропорт отправления: Nizhny Novgorod (UWGG)
  • Аэропорт назначения: Domodedovo Airport (UUDD)
  • Тип ВС: TUPOLEV TU15 (RA-85688)
  • Время полёта: 01.47
  • Дата полёта: 27.08.2016
  • Маршрут: RP R480 CW W168 MF MF1D GEKLA
  • Статус: Одобрен

Детали полёта
Gross Revenue:
(149 load / $ 300.00 per unit
$ 44,700.00
Fuel Cost:
(5224 fuel used @ 5.1 / unit)
$ 26,642.40


Дополнительная информация о полёте:

Лог

Aircraft Used in flight is Tu154_felis_v1.1 S7 Airlines
13:56 Boarding
13:56 Navigation Lights ON at 260 AGL
13:56 Brakes are On
14:01 Brakes are Released
14:08 Engine 2 Started
14:09 Engine 1 Started
14:10 Engine 3 Started
14:19Flaps 2 Selected at 260ft and 0kts
14:19Flaps 4 Selected at 260ft and 0kts
14:28 You Took off @ 142 Knots and Flaps at Position 4
Departure Weather
UWGG 271100Z 24002MPS 200V330 9999 SCT033 22/12 Q1018 R36L/090070 NOSIG RMK QFE757rn
14:28 You are Airborne and your Beacons are off
14:29Flaps 2 Selected at 1730ft and 186kts
14:29 You exceeded maximum bank angle
14:29Flaps Retracted at 2690ft and 217kts
14:30 Below 10000 feet you are not allowed to go over 250 knots
14:32 Stalling
14:32 Recovered from Stall
14:48 TOC Reached
14:51 Stalling
14:51 Recovered from Stall
15:23Flaps 2 Selected at 1990ft and 203kts
15:23Flaps 4 Selected at 2200ft and 173kts
15:24Flaps 6 Selected at 2460ft and 144kts
15:24Flaps 8 Selected at 2460ft and 144kts
15:28 You Landed @ 145 Knots and with -100 Vertical Speed
Arrival Weather
UUDD 271030Z 26005MPS 230V300 CAVOK 25/15 Q1020 R88/010095 NOSIGrn
15:29Flaps 6 Selected at 600ft and 12kts
15:29Flaps 4 Selected at 600ft and 12kts
15:29Flaps 2 Selected at 600ft and 12kts
15:29Flaps Retracted at 600ft and 12kts
15:37 Brakes are On
15:37 Engine 3 Stoped
15:37 Engine 1 Stoped
15:38 Engine 2 Stoped
15:38 Navigation Lights OFF at 600 AGL
15:41 Navigation Lights ON at 600 AGL
15:41 Navigation Lights OFF at 600 AGL
Pirep logged with S7 Tracking 1.0.0.13



Общая оценка полета : 100%




Route Map



 
 
   
 
Новости

26.04.2018 - Полеты в X-PLANE

Наш клиент S7 Pad поддерживает полеты как в MFSX, Prepar3d V4, так и в X-PLANE 10 и 11 версиях!
На нашем сайте в разреде загруки есть плагин XPUIPIC for X-plane.
Приятных Вам полетов и мягких посадок!

   
 
Авторизация






Регистрация

Восстановить пароль?

Мы в соц. сетях

      



   
  TeamSpeak3 ts.va-s7.ru


   
 

   
 



   
 


Яндекс.Метрика

www.va-s7.ru 2011-2017
Все права защищены.



Минуточку внимания!
Мы не имеем отношения к торговым маркам "S7" и "Globus" и их представителям.
Эмблемы на сайте являются собственностью соответствующих компаний.

аэронавигационная метеорологическая и любая другая информация с данного ресурса ни в коем случае не должна использоваться для реальных полетов